Dai2kousei — JD2542 — position and weather

sailwx.info

Track history (hours):
 
Tides and Currents Weather Stations Pressure Air Temp Water Temp Dewpoint Dewpoint Depression Visibility Wind Speed Wind Dir Waves Ship Positions

Dai2kousei

Last reported at 2016-Jul-29 23:09 UTC. Time now 2016-Jul-31 00:24 UTC.
Position N 36°22' E 140°60'.

Length 77 m; draft 4.5 m.

MMSI: 431000467.

Date/timePositionNaut miles runAvg speedWind from/ knotsBaromVisibWave heightAir tempDewpointWater temp
2016-Jul-29 23:09N 36°22' E 140°60'711.2
2016-Jul-29 22:32N 36°15' E 140°59'100 9.8
2016-Jul-29 12:16N 34°55' E 139°46'8 9.9
2016-Jul-29 11:30N 35°02' E 139°43'1111.4
2016-Jul-29 10:34N 35°13' E 139°46'1110.6
2016-Jul-29 09:33N 35°23' E 139°42'5 5.0
2016-Jul-29 08:33N 35°27' E 139°41'0 0.0
2016-Jul-29 07:33N 35°27' E 139°41'0 0.0
2016-Jul-29 06:33N 35°27' E 139°41'0 0.0
2016-Jul-29 05:33N 35°27' E 139°41'0 0.0
2016-Jul-29 04:33N 35°27' E 139°41'0 0.0
2016-Jul-29 03:33N 35°27' E 139°41'0 0.0
2016-Jul-29 02:33N 35°27' E 139°41'0 0.0
2016-Jul-29 01:33N 35°27' E 139°41'0 0.0
2016-Jul-29 00:33N 35°27' E 139°41'0 0.0
2016-Jul-28 23:33N 35°27' E 139°41'0 0.0
2016-Jul-28 22:33N 35°27' E 139°41'0 0.0
2016-Jul-28 21:33N 35°27' E 139°41'0 0.0
2016-Jul-28 20:33N 35°27' E 139°41'0 0.0
2016-Jul-28 19:33N 35°27' E 139°41'0 0.0
2016-Jul-28 18:33N 35°27' E 139°41'0 0.0
2016-Jul-28 17:33N 35°27' E 139°41'0 0.0
2016-Jul-28 16:33N 35°27' E 139°41'0 0.0
2016-Jul-28 15:33N 35°27' E 139°41'0 0.0
2016-Jul-28 14:33N 35°27' E 139°41'0 0.0
2016-Jul-28 13:33N 35°27' E 139°41'0 0.0
2016-Jul-28 12:33N 35°27' E 139°41'0 0.0
2016-Jul-28 11:33N 35°27' E 139°41'0 0.0
2016-Jul-28 10:33N 35°27' E 139°41'0 0.0
2016-Jul-28 09:33N 35°27' E 139°41'0 0.0
2016-Jul-28 08:33N 35°27' E 139°41'0 0.0
2016-Jul-28 07:33N 35°27' E 139°41'0 0.0
2016-Jul-28 06:33N 35°27' E 139°41'2 2.0
2016-Jul-28 05:33N 35°27' E 139°43'1111.4
2016-Jul-28 04:33N 35°32' E 139°55'7 7.2
2016-Jul-28 03:33N 35°35' E 140°03'0 0.0
2016-Jul-28 02:33N 35°35' E 140°03'0 0.0
2016-Jul-28 01:33N 35°35' E 140°03'0 0.0
2016-Jul-28 00:33N 35°35' E 140°03'0 0.0
2016-Jul-27 23:33N 35°35' E 140°03'0 0.1
2016-Jul-27 22:33N 35°35' E 140°03'0 0.0
2016-Jul-27 21:33N 35°35' E 140°03'0 0.0
2016-Jul-27 20:33N 35°35' E 140°03'0 0.0
2016-Jul-27 19:33N 35°35' E 140°03'0 0.0
2016-Jul-27 18:34N 35°35' E 140°03'0 0.0
2016-Jul-27 17:33N 35°35' E 140°03'0 0.0
2016-Jul-27 16:33N 35°35' E 140°03'0 0.0
2016-Jul-27 15:33N 35°35' E 140°03'0 0.0
2016-Jul-27 14:33N 35°35' E 140°03'0 0.0
2016-Jul-27 13:32N 35°35' E 140°03'0 0.1
2016-Jul-27 12:33N 35°35' E 140°03'0 0.0
2016-Jul-27 11:33N 35°35' E 140°03'0 0.0
2016-Jul-27 10:33N 35°35' E 140°03'0 0.0
2016-Jul-27 09:33N 35°35' E 140°03'0 0.0
2016-Jul-27 08:33N 35°35' E 140°03'0 0.0
2016-Jul-27 07:33N 35°35' E 140°03'0 0.0
2016-Jul-27 06:33N 35°35' E 140°03'0 0.0
2016-Jul-27 05:33N 35°35' E 140°03'0 0.0
2016-Jul-27 04:33N 35°35' E 140°03'0 0.0
2016-Jul-27 03:33N 35°35' E 140°03'0 0.0
2016-Jul-27 02:33N 35°35' E 140°03'0 0.0
2016-Jul-27 01:33N 35°35' E 140°03'0 0.0
2016-Jul-27 00:33N 35°35' E 140°03'0 0.0
2016-Jul-26 23:33N 35°35' E 140°03'0 0.0
2016-Jul-26 22:33N 35°35' E 140°03'9 9.5
2016-Jul-26 21:33N 35°31' E 139°53'7 7.1
2016-Jul-26 20:33N 35°29' E 139°44'0 0.0
2016-Jul-26 19:33N 35°29' E 139°44'0 0.0
2016-Jul-26 18:33N 35°29' E 139°44'0 0.0
2016-Jul-26 17:33N 35°29' E 139°44'0 0.0
2016-Jul-26 16:33N 35°29' E 139°44'0 0.0
2016-Jul-26 15:33N 35°29' E 139°44'0 0.0
2016-Jul-26 14:33N 35°29' E 139°44'2 1.9
2016-Jul-26 13:34N 35°28' E 139°46'10 9.9
2016-Jul-26 12:33N 35°29' E 139°58'2 1.8
2016-Jul-26 11:33N 35°28' E 140°00'0 0.0
2016-Jul-26 10:33N 35°28' E 140°00'0 0.0
2016-Jul-26 09:33N 35°28' E 140°00'0 0.0
2016-Jul-26 08:33N 35°28' E 140°00'2 1.8
2016-Jul-26 07:33N 35°30' E 139°60'7 7.4
2016-Jul-26 06:33N 35°34' E 140°07'0 0.0
2016-Jul-26 05:33N 35°34' E 140°07'0 0.0
2016-Jul-26 04:33N 35°34' E 140°07'0 0.0
2016-Jul-26 03:33N 35°34' E 140°07'0 0.0
2016-Jul-26 02:33N 35°34' E 140°07'0 0.0
2016-Jul-26 01:33N 35°34' E 140°07'0 0.0
2016-Jul-26 00:33N 35°34' E 140°07'0 0.0
2016-Jul-25 23:33N 35°34' E 140°07'0 0.0
2016-Jul-25 22:34N 35°34' E 140°07'1 0.5
2016-Jul-25 21:33N 35°34' E 140°06'8 8.5
2016-Jul-25 20:33N 35°40' E 139°59'1 0.6
2016-Jul-25 19:33N 35°41' E 139°59'0 0.0
2016-Jul-25 18:33N 35°41' E 139°59'0 0.0
2016-Jul-25 17:33N 35°41' E 139°59'0 0.0
2016-Jul-25 16:33N 35°41' E 139°59'0 0.0
2016-Jul-25 15:33N 35°41' E 139°59'0 0.0
2016-Jul-25 14:33N 35°41' E 139°59'0 0.0
2016-Jul-25 13:33N 35°41' E 139°59'0 0.0
2016-Jul-25 12:32N 35°41' E 139°59'0 0.0
2016-Jul-25 11:33N 35°41' E 139°59'0 0.0
2016-Jul-25 10:33N 35°41' E 139°59'0 0.0
2016-Jul-25 09:33N 35°41' E 139°59'0 0.0
2016-Jul-25 08:33N 35°41' E 139°59'0 0.0
2016-Jul-25 07:33N 35°41' E 139°59'0 0.0
2016-Jul-25 06:33N 35°41' E 139°59'0 0.0
2016-Jul-25 05:33N 35°41' E 139°59'0 0.0
2016-Jul-25 04:33N 35°41' E 139°59'0 0.0
2016-Jul-25 03:33N 35°41' E 139°59'0 0.0
2016-Jul-25 02:33N 35°41' E 139°59'0 0.0
2016-Jul-25 01:33N 35°41' E 139°59'9 8.8
2016-Jul-25 00:33N 35°33' E 139°54'9 8.9
2016-Jul-24 23:33N 35°29' E 139°44'0 0.0
2016-Jul-24 22:33N 35°29' E 139°44'0 0.0
2016-Jul-24 21:34N 35°29' E 139°44'0 0.0
2016-Jul-24 20:33N 35°29' E 139°44'0 0.0
2016-Jul-24 19:33N 35°29' E 139°44'0 0.0
2016-Jul-24 18:33N 35°29' E 139°44'0 0.0
2016-Jul-24 17:33N 35°29' E 139°44'0 0.0
2016-Jul-24 16:33N 35°29' E 139°44'0 0.0
2016-Jul-24 15:33N 35°29' E 139°44'0 0.0
2016-Jul-24 14:33N 35°29' E 139°44'0 0.0
2016-Jul-24 13:33N 35°29' E 139°44'0 0.0
2016-Jul-24 12:33N 35°29' E 139°44'0 0.0
2016-Jul-24 11:33N 35°29' E 139°44'0 0.0
2016-Jul-24 10:33N 35°29' E 139°44'2 2.2
2016-Jul-24 09:33N 35°27' E 139°45'5 5.2
2016-Jul-24 08:33N 35°29' E 139°51'1010.2
2016-Jul-24 07:32N 35°34' E 140°02'4 4.0
2016-Jul-24 06:33N 35°34' E 140°07'0 0.0
2016-Jul-24 05:33N 35°34' E 140°07'0 0.0
2016-Jul-24 04:33N 35°34' E 140°07'0 0.0
2016-Jul-24 03:33N 35°34' E 140°07'0 0.0
2016-Jul-24 02:33N 35°34' E 140°07'0 0.0
2016-Jul-24 01:33N 35°34' E 140°07'0 0.0
2016-Jul-24 00:33N 35°34' E 140°07'0 0.0
2016-Jul-23 23:33N 35°34' E 140°07'0 0.0
2016-Jul-23 22:33N 35°34' E 140°07'0 0.3
2016-Jul-23 21:33N 35°34' E 140°07'2 2.3
2016-Jul-23 20:33N 35°34' E 140°04'0 0.0
2016-Jul-23 19:33N 35°34' E 140°04'0 0.0
2016-Jul-23 18:34N 35°34' E 140°04'0 0.0
2016-Jul-23 17:33N 35°34' E 140°04'0 0.0
2016-Jul-23 16:33N 35°34' E 140°04'0 0.0
2016-Jul-23 15:33N 35°34' E 140°04'0 0.0
2016-Jul-23 14:33N 35°34' E 140°04'0 0.0
2016-Jul-23 13:33N 35°34' E 140°04'0 0.0
2016-Jul-23 12:33N 35°34' E 140°04'0 0.0
2016-Jul-23 11:33N 35°34' E 140°04'0 0.0
2016-Jul-23 10:33N 35°34' E 140°04'0 0.0
2016-Jul-23 09:33N 35°34' E 140°04'0 0.0
2016-Jul-23 08:33N 35°34' E 140°04'0 0.1
2016-Jul-23 07:33N 35°34' E 140°04'0 0.0
2016-Jul-23 06:33N 35°34' E 140°04'0 0.0
2016-Jul-23 04:33N 35°34' E 140°04'0 0.0
2016-Jul-23 03:33N 35°34' E 140°04'0 0.0
2016-Jul-23 02:33N 35°34' E 140°04'0 0.0
2016-Jul-23 01:33N 35°34' E 140°04'0 0.0
2016-Jul-23 00:33N 35°34' E 140°04'0 0.0
2016-Jul-22 23:33N 35°34' E 140°04'0 0.0
2016-Jul-22 22:32N 35°34' E 140°04'0 0.0
2016-Jul-22 21:33N 35°34' E 140°04'5 5.5
2016-Jul-22 20:33N 35°33' E 139°57'1010.2
2016-Jul-22 19:33N 35°29' E 139°46'1 1.3
2016-Jul-22 18:33N 35°29' E 139°44'0 0.0
2016-Jul-22 17:33N 35°29' E 139°44'0 0.0
2016-Jul-22 16:33N 35°29' E 139°44'0 0.0
2016-Jul-22 15:33N 35°29' E 139°44'0 0.0
2016-Jul-22 14:33N 35°29' E 139°44'0 0.0
2016-Jul-22 13:33N 35°29' E 139°44'0 0.0
2016-Jul-22 12:33N 35°29' E 139°44'0 0.0
2016-Jul-22 11:33N 35°29' E 139°44'0 0.0
2016-Jul-22 10:33N 35°29' E 139°44'0 0.0
2016-Jul-22 09:33N 35°29' E 139°44'1 1.2
2016-Jul-22 08:33N 35°29' E 139°46'0 0.1
2016-Jul-22 07:33N 35°29' E 139°46'0 0.0
2016-Jul-22 05:33N 35°29' E 139°46'4 4.0
2016-Jul-22 04:33N 35°25' E 139°46'1010.4
2016-Jul-22 03:33N 35°14' E 139°47'1110.6
2016-Jul-22 02:32N 35°04' E 139°43'  
Track history (hours):
 
Tides and Currents Weather Stations Pressure Air Temp Water Temp Dewpoint Dewpoint Depression Visibility Wind Speed Wind Dir Waves Ship Positions

Dai2kousei

Last reported at 2016-Jul-29 23:09 UTC. Time now 2016-Jul-31 00:24 UTC.
Position N 36°22' E 140°60'.

Length 77 m; draft 4.5 m.

MMSI: 431000467.

Date/timePositionNaut miles runAvg speedWind from/ knotsBaromVisibWave heightAir tempDewpointWater temp
2016-Jul-29 23:09N 36°22' E 140°60'711.2
2016-Jul-29 22:32N 36°15' E 140°59'100 9.8
2016-Jul-29 12:16N 34°55' E 139°46'8 9.9
2016-Jul-29 11:30N 35°02' E 139°43'1111.4
2016-Jul-29 10:34N 35°13' E 139°46'1110.6
2016-Jul-29 09:33N 35°23' E 139°42'5 5.0
2016-Jul-29 08:33N 35°27' E 139°41'0 0.0
2016-Jul-29 07:33N 35°27' E 139°41'0 0.0
2016-Jul-29 06:33N 35°27' E 139°41'0 0.0
2016-Jul-29 05:33N 35°27' E 139°41'0 0.0
2016-Jul-29 04:33N 35°27' E 139°41'0 0.0
2016-Jul-29 03:33N 35°27' E 139°41'0 0.0
2016-Jul-29 02:33N 35°27' E 139°41'0 0.0
2016-Jul-29 01:33N 35°27' E 139°41'0 0.0
2016-Jul-29 00:33N 35°27' E 139°41'0 0.0
2016-Jul-28 23:33N 35°27' E 139°41'0 0.0
2016-Jul-28 22:33N 35°27' E 139°41'0 0.0
2016-Jul-28 21:33N 35°27' E 139°41'0 0.0
2016-Jul-28 20:33N 35°27' E 139°41'0 0.0
2016-Jul-28 19:33N 35°27' E 139°41'0 0.0
2016-Jul-28 18:33N 35°27' E 139°41'0 0.0
2016-Jul-28 17:33N 35°27' E 139°41'0 0.0
2016-Jul-28 16:33N 35°27' E 139°41'0 0.0
2016-Jul-28 15:33N 35°27' E 139°41'0 0.0
2016-Jul-28 14:33N 35°27' E 139°41'0 0.0
2016-Jul-28 13:33N 35°27' E 139°41'0 0.0
2016-Jul-28 12:33N 35°27' E 139°41'0 0.0
2016-Jul-28 11:33N 35°27' E 139°41'0 0.0
2016-Jul-28 10:33N 35°27' E 139°41'0 0.0
2016-Jul-28 09:33N 35°27' E 139°41'0 0.0
2016-Jul-28 08:33N 35°27' E 139°41'0 0.0
2016-Jul-28 07:33N 35°27' E 139°41'0 0.0
2016-Jul-28 06:33N 35°27' E 139°41'2 2.0
2016-Jul-28 05:33N 35°27' E 139°43'1111.4
2016-Jul-28 04:33N 35°32' E 139°55'7 7.2
2016-Jul-28 03:33N 35°35' E 140°03'0 0.0
2016-Jul-28 02:33N 35°35' E 140°03'0 0.0
2016-Jul-28 01:33N 35°35' E 140°03'0 0.0
2016-Jul-28 00:33N 35°35' E 140°03'0 0.0
2016-Jul-27 23:33N 35°35' E 140°03'0 0.1
2016-Jul-27 22:33N 35°35' E 140°03'0 0.0
2016-Jul-27 21:33N 35°35' E 140°03'0 0.0
2016-Jul-27 20:33N 35°35' E 140°03'0 0.0
2016-Jul-27 19:33N 35°35' E 140°03'0 0.0
2016-Jul-27 18:34N 35°35' E 140°03'0 0.0
2016-Jul-27 17:33N 35°35' E 140°03'0 0.0
2016-Jul-27 16:33N 35°35' E 140°03'0 0.0
2016-Jul-27 15:33N 35°35' E 140°03'0 0.0
2016-Jul-27 14:33N 35°35' E 140°03'0 0.0
2016-Jul-27 13:32N 35°35' E 140°03'0 0.1
2016-Jul-27 12:33N 35°35' E 140°03'0 0.0
2016-Jul-27 11:33N 35°35' E 140°03'0 0.0
2016-Jul-27 10:33N 35°35' E 140°03'0 0.0
2016-Jul-27 09:33N 35°35' E 140°03'0 0.0
2016-Jul-27 08:33N 35°35' E 140°03'0 0.0
2016-Jul-27 07:33N 35°35' E 140°03'0 0.0
2016-Jul-27 06:33N 35°35' E 140°03'0 0.0
2016-Jul-27 05:33N 35°35' E 140°03'0 0.0
2016-Jul-27 04:33N 35°35' E 140°03'0 0.0
2016-Jul-27 03:33N 35°35' E 140°03'0 0.0
2016-Jul-27 02:33N 35°35' E 140°03'0 0.0
2016-Jul-27 01:33N 35°35' E 140°03'0 0.0
2016-Jul-27 00:33N 35°35' E 140°03'0 0.0
2016-Jul-26 23:33N 35°35' E 140°03'0 0.0
2016-Jul-26 22:33N 35°35' E 140°03'9 9.5
2016-Jul-26 21:33N 35°31' E 139°53'7 7.1
2016-Jul-26 20:33N 35°29' E 139°44'0 0.0
2016-Jul-26 19:33N 35°29' E 139°44'0 0.0
2016-Jul-26 18:33N 35°29' E 139°44'0 0.0
2016-Jul-26 17:33N 35°29' E 139°44'0 0.0
2016-Jul-26 16:33N 35°29' E 139°44'0 0.0
2016-Jul-26 15:33N 35°29' E 139°44'0 0.0
2016-Jul-26 14:33N 35°29' E 139°44'2 1.9
2016-Jul-26 13:34N 35°28' E 139°46'10 9.9
2016-Jul-26 12:33N 35°29' E 139°58'2 1.8
2016-Jul-26 11:33N 35°28' E 140°00'0 0.0
2016-Jul-26 10:33N 35°28' E 140°00'0 0.0
2016-Jul-26 09:33N 35°28' E 140°00'0 0.0
2016-Jul-26 08:33N 35°28' E 140°00'2 1.8
2016-Jul-26 07:33N 35°30' E 139°60'7 7.4
2016-Jul-26 06:33N 35°34' E 140°07'0 0.0
2016-Jul-26 05:33N 35°34' E 140°07'0 0.0
2016-Jul-26 04:33N 35°34' E 140°07'0 0.0
2016-Jul-26 03:33N 35°34' E 140°07'0 0.0
2016-Jul-26 02:33N 35°34' E 140°07'0 0.0
2016-Jul-26 01:33N 35°34' E 140°07'0 0.0
2016-Jul-26 00:33N 35°34' E 140°07'0 0.0
2016-Jul-25 23:33N 35°34' E 140°07'0 0.0
2016-Jul-25 22:34N 35°34' E 140°07'1 0.5
2016-Jul-25 21:33N 35°34' E 140°06'8 8.5
2016-Jul-25 20:33N 35°40' E 139°59'1 0.6
2016-Jul-25 19:33N 35°41' E 139°59'0 0.0
2016-Jul-25 18:33N 35°41' E 139°59'0 0.0
2016-Jul-25 17:33N 35°41' E 139°59'0 0.0
2016-Jul-25 16:33N 35°41' E 139°59'0 0.0
2016-Jul-25 15:33N 35°41' E 139°59'0 0.0
2016-Jul-25 14:33N 35°41' E 139°59'0 0.0
2016-Jul-25 13:33N 35°41' E 139°59'0 0.0
2016-Jul-25 12:32N 35°41' E 139°59'0 0.0
2016-Jul-25 11:33N 35°41' E 139°59'0 0.0
2016-Jul-25 10:33N 35°41' E 139°59'0 0.0
2016-Jul-25 09:33N 35°41' E 139°59'0 0.0
2016-Jul-25 08:33N 35°41' E 139°59'0 0.0
2016-Jul-25 07:33N 35°41' E 139°59'0 0.0
2016-Jul-25 06:33N 35°41' E 139°59'0 0.0
2016-Jul-25 05:33N 35°41' E 139°59'0 0.0
2016-Jul-25 04:33N 35°41' E 139°59'0 0.0
2016-Jul-25 03:33N 35°41' E 139°59'0 0.0
2016-Jul-25 02:33N 35°41' E 139°59'0 0.0
2016-Jul-25 01:33N 35°41' E 139°59'9 8.8
2016-Jul-25 00:33N 35°33' E 139°54'9 8.9
2016-Jul-24 23:33N 35°29' E 139°44'0 0.0
2016-Jul-24 22:33N 35°29' E 139°44'0 0.0
2016-Jul-24 21:34N 35°29' E 139°44'0 0.0
2016-Jul-24 20:33N 35°29' E 139°44'0 0.0
2016-Jul-24 19:33N 35°29' E 139°44'0 0.0
2016-Jul-24 18:33N 35°29' E 139°44'0 0.0
2016-Jul-24 17:33N 35°29' E 139°44'0 0.0
2016-Jul-24 16:33N 35°29' E 139°44'0 0.0
2016-Jul-24 15:33N 35°29' E 139°44'0 0.0
2016-Jul-24 14:33N 35°29' E 139°44'0 0.0
2016-Jul-24 13:33N 35°29' E 139°44'0 0.0
2016-Jul-24 12:33N 35°29' E 139°44'0 0.0
2016-Jul-24 11:33N 35°29' E 139°44'0 0.0
2016-Jul-24 10:33N 35°29' E 139°44'2 2.2
2016-Jul-24 09:33N 35°27' E 139°45'5 5.2
2016-Jul-24 08:33N 35°29' E 139°51'1010.2
2016-Jul-24 07:32N 35°34' E 140°02'4 4.0
2016-Jul-24 06:33N 35°34' E 140°07'0 0.0
2016-Jul-24 05:33N 35°34' E 140°07'0 0.0
2016-Jul-24 04:33N 35°34' E 140°07'0 0.0
2016-Jul-24 03:33N 35°34' E 140°07'0 0.0
2016-Jul-24 02:33N 35°34' E 140°07'0 0.0
2016-Jul-24 01:33N 35°34' E 140°07'0 0.0
2016-Jul-24 00:33N 35°34' E 140°07'0 0.0
2016-Jul-23 23:33N 35°34' E 140°07'0 0.0
2016-Jul-23 22:33N 35°34' E 140°07'0 0.3
2016-Jul-23 21:33N 35°34' E 140°07'2 2.3
2016-Jul-23 20:33N 35°34' E 140°04'0 0.0
2016-Jul-23 19:33N 35°34' E 140°04'0 0.0
2016-Jul-23 18:34N 35°34' E 140°04'0 0.0
2016-Jul-23 17:33N 35°34' E 140°04'0 0.0
2016-Jul-23 16:33N 35°34' E 140°04'0 0.0
2016-Jul-23 15:33N 35°34' E 140°04'0 0.0
2016-Jul-23 14:33N 35°34' E 140°04'0 0.0
2016-Jul-23 13:33N 35°34' E 140°04'0 0.0
2016-Jul-23 12:33N 35°34' E 140°04'0 0.0
2016-Jul-23 11:33N 35°34' E 140°04'0 0.0
2016-Jul-23 10:33N 35°34' E 140°04'0 0.0
2016-Jul-23 09:33N 35°34' E 140°04'0 0.0
2016-Jul-23 08:33N 35°34' E 140°04'0 0.1
2016-Jul-23 07:33N 35°34' E 140°04'0 0.0
2016-Jul-23 06:33N 35°34' E 140°04'0 0.0
2016-Jul-23 04:33N 35°34' E 140°04'0 0.0
2016-Jul-23 03:33N 35°34' E 140°04'0 0.0
2016-Jul-23 02:33N 35°34' E 140°04'0 0.0
2016-Jul-23 01:33N 35°34' E 140°04'0 0.0
2016-Jul-23 00:33N 35°34' E 140°04'0 0.0
2016-Jul-22 23:33N 35°34' E 140°04'0 0.0
2016-Jul-22 22:32N 35°34' E 140°04'0 0.0
2016-Jul-22 21:33N 35°34' E 140°04'5 5.5
2016-Jul-22 20:33N 35°33' E 139°57'1010.2
2016-Jul-22 19:33N 35°29' E 139°46'1 1.3
2016-Jul-22 18:33N 35°29' E 139°44'0 0.0
2016-Jul-22 17:33N 35°29' E 139°44'0 0.0
2016-Jul-22 16:33N 35°29' E 139°44'0 0.0
2016-Jul-22 15:33N 35°29' E 139°44'0 0.0
2016-Jul-22 14:33N 35°29' E 139°44'0 0.0
2016-Jul-22 13:33N 35°29' E 139°44'0 0.0
2016-Jul-22 12:33N 35°29' E 139°44'0 0.0
2016-Jul-22 11:33N 35°29' E 139°44'0 0.0
2016-Jul-22 10:33N 35°29' E 139°44'0 0.0
2016-Jul-22 09:33N 35°29' E 139°44'1 1.2
2016-Jul-22 08:33N 35°29' E 139°46'0 0.1
2016-Jul-22 07:33N 35°29' E 139°46'0 0.0
2016-Jul-22 05:33N 35°29' E 139°46'4 4.0
2016-Jul-22 04:33N 35°25' E 139°46'1010.4
2016-Jul-22 03:33N 35°14' E 139°47'1110.6
2016-Jul-22 02:32N 35°04' E 139°43'  

Dump ship's entire track history